createdAt,value
2023-01-22T00:04:21.351Z,101617.40
2023-01-22T00:09:24.788Z,101627.80
2023-01-22T00:14:28.109Z,101630.60
2023-01-22T00:19:31.387Z,101631.40
2023-01-22T00:24:34.588Z,101639.40
2023-01-22T00:29:37.697Z,101637.40
2023-01-22T00:34:40.837Z,101647.80
2023-01-22T00:39:44.012Z,101654.80
2023-01-22T00:44:47.325Z,101656.20
2023-01-22T00:49:50.538Z,101657.40
2023-01-22T00:54:53.746Z,101645.60
2023-01-22T00:59:56.951Z,101648.20
2023-01-22T01:05:02.120Z,101654.60
2023-01-22T01:10:06.393Z,101653.40
2023-01-22T01:15:10.421Z,101661.80
2023-01-22T01:20:13.893Z,101662.80
2023-01-22T01:25:17.310Z,101658.00
2023-01-22T01:30:20.673Z,101666.80
2023-01-22T01:35:24.391Z,101660.40
2023-01-22T01:40:28.356Z,101669.40
2023-01-22T01:45:34.489Z,101672.20
2023-01-22T01:50:42.760Z,101679.40
2023-01-22T01:55:46.074Z,101677.40
2023-01-22T02:01:00.807Z,101679.20
2023-01-22T02:06:04.204Z,101679.80
2023-01-22T02:11:08.721Z,101680.40
2023-01-22T02:16:12.160Z,101681.20
2023-01-22T02:21:44.640Z,101683.80
2023-01-22T02:26:47.620Z,101690.20
2023-01-22T02:31:50.628Z,101690.00
2023-01-22T02:36:54.491Z,101689.80
2023-01-22T02:41:58.836Z,101695.00
2023-01-22T02:47:01.980Z,101689.40
2023-01-22T02:52:05.393Z,101696.40
2023-01-22T02:57:08.447Z,101700.20
2023-01-22T03:02:11.907Z,101696.60
2023-01-22T03:07:14.978Z,101696.40
2023-01-22T03:12:18.182Z,101697.20
2023-01-22T03:17:39.806Z,101704.20
2023-01-22T03:22:42.800Z,101708.40
2023-01-22T03:28:04.677Z,101708.80
2023-01-22T03:33:07.635Z,101698.40
2023-01-22T03:38:10.664Z,101696.80
2023-01-22T03:43:13.671Z,101700.40
2023-01-22T03:48:16.741Z,101699.80
2023-01-22T03:53:19.721Z,101700.40
2023-01-22T03:58:22.696Z,101697.00
2023-01-22T04:03:29.609Z,101691.00
2023-01-22T04:08:36.277Z,101705.20
2023-01-22T04:13:42.523Z,101699.20
2023-01-22T04:18:45.578Z,101697.40
2023-01-22T04:23:48.583Z,101708.00
2023-01-22T04:28:51.606Z,101713.00
2023-01-22T04:33:54.620Z,101715.40
2023-01-22T04:38:57.672Z,101713.00
2023-01-22T04:44:00.599Z,101703.80
2023-01-22T04:49:03.735Z,101714.60
2023-01-22T04:54:06.711Z,101720.40
2023-01-22T04:59:09.821Z,101720.80
2023-01-22T05:04:12.913Z,101727.00
2023-01-22T05:09:17.455Z,101736.00
2023-01-22T05:14:20.479Z,101735.80
2023-01-22T05:19:23.496Z,101737.80
2023-01-22T05:24:26.537Z,101754.20
2023-01-22T05:29:30.020Z,101756.80
2023-01-22T05:34:33.061Z,101766.20
2023-01-22T05:39:36.433Z,101767.40
2023-01-22T05:44:39.462Z,101774.60
2023-01-22T05:49:42.960Z,101781.80
2023-01-22T05:54:46.080Z,101775.40
2023-01-22T05:59:49.269Z,101785.20
2023-01-22T06:04:52.352Z,101789.20
2023-01-22T06:09:55.384Z,101797.40
2023-01-22T06:14:58.415Z,101808.20
2023-01-22T06:20:01.498Z,101813.00
2023-01-22T06:25:05.089Z,101815.40
2023-01-22T06:30:09.644Z,101823.20
2023-01-22T06:35:12.732Z,101836.20
2023-01-22T06:40:16.180Z,101840.40
2023-01-22T06:45:19.541Z,101842.20
2023-01-22T06:50:22.667Z,101851.00
2023-01-22T06:55:25.661Z,101853.80
2023-01-22T07:00:29.367Z,101861.20
2023-01-22T07:05:32.350Z,101873.80
2023-01-22T07:10:35.388Z,101877.00
2023-01-22T07:15:38.408Z,101880.20
2023-01-22T07:20:42.834Z,101896.40
2023-01-22T07:25:46.223Z,101895.20
2023-01-22T07:30:49.293Z,101903.60
2023-01-22T07:35:57.180Z,101908.60
2023-01-22T07:41:11.452Z,101914.80
2023-01-22T07:46:26.436Z,101915.80
2023-01-22T07:51:29.668Z,101925.00
2023-01-22T07:56:32.762Z,101928.20
2023-01-22T08:01:36.035Z,101935.80
2023-01-22T08:06:39.175Z,101942.40
2023-01-22T08:11:42.216Z,101953.40
2023-01-22T08:16:45.439Z,101947.40
2023-01-22T08:21:48.709Z,101955.20
2023-01-22T08:26:51.911Z,101954.80
2023-01-22T08:31:55.514Z,101952.60
2023-01-22T08:36:58.743Z,101957.20
2023-01-22T08:42:02.004Z,101965.20
2023-01-22T08:47:05.572Z,101969.60
2023-01-22T08:52:09.090Z,101977.80
2023-01-22T08:57:12.185Z,101978.60
2023-01-22T09:02:15.426Z,101979.80
2023-01-22T09:07:19.121Z,101982.60
2023-01-22T09:12:22.239Z,101986.40
2023-01-22T09:17:25.444Z,101988.20
2023-01-22T09:22:28.647Z,101990.60
2023-01-22T09:27:31.984Z,101998.00
2023-01-22T09:32:36.284Z,102001.60
2023-01-22T09:37:39.395Z,102007.60
2023-01-22T09:42:43.846Z,102004.40
2023-01-22T09:47:54.643Z,102005.20
2023-01-22T09:53:03.353Z,101998.80
2023-01-22T09:58:15.921Z,102006.40
2023-01-22T10:03:39.369Z,102010.80
2023-01-22T10:09:05.208Z,102019.00
2023-01-22T10:14:15.975Z,102019.00
2023-01-22T10:19:42.762Z,102022.80
2023-01-22T10:24:45.857Z,102019.00
2023-01-22T10:30:17.559Z,102020.80
2023-01-22T10:35:21.587Z,102013.20
2023-01-22T10:40:38.207Z,102022.80
2023-01-22T10:46:05.178Z,102022.40
2023-01-22T10:51:15.688Z,102013.00
2023-01-22T10:56:32.386Z,102011.00
2023-01-22T11:01:39.825Z,102009.80
2023-01-22T11:06:51.484Z,102012.00
2023-01-22T11:12:20.275Z,102013.00
2023-01-22T11:17:34.647Z,102020.20
2023-01-22T11:22:43.400Z,102016.20
2023-01-22T11:27:55.424Z,102015.40
2023-01-22T11:33:29.642Z,102002.00
2023-01-22T11:38:52.609Z,101996.60
2023-01-22T11:44:29.403Z,101990.00
2023-01-22T11:50:01.078Z,101991.60
2023-01-22T11:55:25.391Z,101995.60
2023-01-22T12:01:01.362Z,101996.00
2023-01-22T12:06:32.934Z,101989.40
2023-01-22T12:11:52.218Z,101991.20
2023-01-22T12:17:20.551Z,101991.40
2023-01-22T12:22:54.883Z,101997.00
2023-01-22T12:28:24.786Z,102009.00
2023-01-22T12:33:34.523Z,102005.80
2023-01-22T12:38:54.679Z,102018.80
2023-01-22T12:44:21.825Z,102017.60
2023-01-22T12:49:27.190Z,102020.00
2023-01-22T12:54:35.481Z,102015.20
2023-01-22T12:59:39.239Z,102018.20
2023-01-22T13:04:42.554Z,102023.00
2023-01-22T13:09:45.855Z,102025.00
2023-01-22T13:14:50.807Z,102025.40
2023-01-22T13:19:55.239Z,102025.80
2023-01-22T13:24:59.677Z,102034.20
2023-01-22T13:30:28.923Z,102034.60
2023-01-22T13:35:34.711Z,102032.00
2023-01-22T13:40:50.763Z,102030.40
2023-01-22T13:45:57.272Z,102036.40
2023-01-22T13:51:10.909Z,102041.40
2023-01-22T13:56:24.072Z,102040.20
2023-01-22T14:01:34.417Z,102041.00
2023-01-22T14:06:47.388Z,102037.60
2023-01-22T14:11:50.650Z,102051.60
2023-01-22T14:16:53.892Z,102056.20
2023-01-22T14:21:58.536Z,102059.60
2023-01-22T14:27:01.743Z,102067.60
2023-01-22T14:32:05.410Z,102065.80
2023-01-22T14:37:08.577Z,102057.60
2023-01-22T14:42:11.697Z,102061.80
2023-01-22T14:47:14.799Z,102064.60
2023-01-22T14:52:18.093Z,102074.80
2023-01-22T14:57:21.198Z,102078.60
2023-01-22T15:02:24.383Z,102070.00
2023-01-22T15:07:27.615Z,102068.20
2023-01-22T15:12:30.749Z,102073.40
2023-01-22T15:17:33.934Z,102085.00
2023-01-22T15:22:37.156Z,102088.00
2023-01-22T15:27:40.447Z,102097.00
2023-01-22T15:32:43.676Z,102096.80
2023-01-22T15:37:48.594Z,102107.40
2023-01-22T15:42:51.813Z,102118.00
2023-01-22T15:47:55.024Z,102119.80
2023-01-22T15:52:58.537Z,102125.40
2023-01-22T15:58:01.868Z,102134.80
2023-01-22T16:03:05.262Z,102132.80
2023-01-22T16:08:08.382Z,102139.80
2023-01-22T16:13:11.577Z,102140.20
2023-01-22T16:18:14.685Z,102139.00
2023-01-22T16:23:17.831Z,102146.40
2023-01-22T16:28:21.209Z,102150.80
2023-01-22T16:33:29.600Z,102144.40
2023-01-22T16:38:34.392Z,102142.40
2023-01-22T16:43:37.584Z,102153.60
2023-01-22T16:48:41.002Z,102154.80
2023-01-22T16:53:45.541Z,102166.40
2023-01-22T16:58:48.655Z,102166.80
2023-01-22T17:03:51.861Z,102169.80
2023-01-22T17:08:55.171Z,102174.20
2023-01-22T17:14:00.141Z,102172.00
2023-01-22T17:19:04.243Z,102179.40
2023-01-22T17:24:09.608Z,102185.00
2023-01-22T17:29:12.720Z,102190.80
2023-01-22T17:34:16.826Z,102195.20
2023-01-22T17:39:21.355Z,102192.80
2023-01-22T17:44:27.079Z,102196.20
2023-01-22T17:49:31.930Z,102193.60
2023-01-22T17:54:35.620Z,102205.40
2023-01-22T17:59:38.725Z,102202.80
2023-01-22T18:04:42.081Z,102203.80
2023-01-22T18:09:45.242Z,102204.60
2023-01-22T18:14:48.763Z,102211.40
2023-01-22T18:19:52.093Z,102217.60
2023-01-22T18:24:55.378Z,102219.80
2023-01-22T18:29:58.602Z,102226.40
2023-01-22T18:35:03.324Z,102225.00
2023-01-22T18:40:07.474Z,102232.00
2023-01-22T18:45:11.797Z,102227.00
2023-01-22T18:50:16.959Z,102220.00
2023-01-22T18:55:22.110Z,102224.60
2023-01-22T19:00:25.636Z,102230.20
2023-01-22T19:05:29.758Z,102235.00
2023-01-22T19:10:32.873Z,102248.20
2023-01-22T19:15:36.185Z,102250.60
2023-01-22T19:20:40.100Z,102251.40
2023-01-22T19:25:43.408Z,102258.60
2023-01-22T19:30:46.625Z,102256.80
2023-01-22T19:35:49.878Z,102256.40
2023-01-22T19:40:53.855Z,102263.00
2023-01-22T19:46:02.345Z,102263.80
2023-01-22T19:51:13.322Z,102266.20
2023-01-22T19:56:23.691Z,102267.20
2023-01-22T20:01:27.678Z,102266.40
2023-01-22T20:06:31.018Z,102264.80
2023-01-22T20:11:34.521Z,102266.00
2023-01-22T20:16:38.145Z,102263.60
2023-01-22T20:21:41.226Z,102260.00
2023-01-22T20:26:44.341Z,102257.40
2023-01-22T20:31:52.579Z,102261.80
2023-01-22T20:36:55.979Z,102264.00
2023-01-22T20:41:59.185Z,102263.00
2023-01-22T20:47:02.808Z,102260.60
2023-01-22T20:52:06.628Z,102264.40
2023-01-22T20:57:09.752Z,102268.80
2023-01-22T21:02:12.898Z,102269.00
2023-01-22T21:07:15.944Z,102274.20
2023-01-22T21:12:19.300Z,102271.60
2023-01-22T21:17:22.468Z,102270.60
2023-01-22T21:22:26.492Z,102275.60
2023-01-22T21:27:29.701Z,102263.80
2023-01-22T21:32:33.027Z,102274.80
2023-01-22T21:37:36.117Z,102275.40
2023-01-22T21:42:58.578Z,102271.00
2023-01-22T21:48:01.912Z,102277.20
2023-01-22T21:53:05.092Z,102280.20
2023-01-22T21:58:09.003Z,102279.00
2023-01-22T22:03:12.652Z,102286.60
2023-01-22T22:08:15.850Z,102290.00
2023-01-22T22:13:20.182Z,102291.80
2023-01-22T22:18:23.360Z,102293.80
2023-01-22T22:23:26.546Z,102297.20
2023-01-22T22:28:30.319Z,102301.60
2023-01-22T22:33:33.427Z,102303.20
2023-01-22T22:38:37.249Z,102305.40
2023-01-22T22:43:47.002Z,102308.20
2023-01-22T22:48:51.725Z,102315.40
2023-01-22T22:54:02.358Z,102315.80
2023-01-22T22:59:05.755Z,102319.00
2023-01-22T23:04:09.225Z,102318.40
2023-01-22T23:09:19.902Z,102318.60
2023-01-22T23:14:23.598Z,102317.60
2023-01-22T23:19:27.812Z,102314.00
2023-01-22T23:24:32.269Z,102323.60
2023-01-22T23:29:35.348Z,102328.80
2023-01-22T23:34:38.463Z,102331.60
2023-01-22T23:39:41.888Z,102335.60
2023-01-22T23:44:45.072Z,102340.20
2023-01-22T23:49:48.400Z,102337.40
2023-01-22T23:54:51.590Z,102333.20
2023-01-22T23:59:54.825Z,102347.00
